Flight Track Log - Related Links

Times and Time Zones

All times are in EDT time to prevent confusion due to time zone crossing. See the N101M flight status page for this flight to view local times or setup timezone preferences in your user account.

Time Position Orientation Groundspeed Altitude Reporting Facility
EDT Latitude Longitude Course Direction KTS MPH feet Rate Location/Type
Thu 05:26:19 PM 27.1253 -81.5381 227° Southwest 140 161 4,100  Level Miami Center
Thu 05:27:21 PM 27.1014 -81.5692 229° Southwest 135 155 4,900 484 Climbing Miami Center
Thu 05:28:23 PM 27.0736 -81.5997 224° Southwest 145 167 5,100 97 Climbing Miami Center
Thu 05:29:25 PM 27.0389 -81.6394 226° Southwest 178 205 5,100 -48 Level Miami Center
Thu 05:30:00 PM 27.0707 -81.5885 227° Southwest  Level FlightAware Approximate
Thu 05:30:27 PM 26.9981 -81.6886 227° Southwest 179 206 5,000  Level Miami Center
Thu 05:31:00 PM 27.0440 -81.6205 227° Southwest  Level FlightAware Approximate
Thu 05:31:29 PM 26.9647 -81.7286 227° Southwest 177 204 5,100  Level Miami Center
Thu 05:32:31 PM 26.9286 -81.7733 228° Southwest 183 211 4,400 -629 Descending Miami Center
Thu 05:33:33 PM 26.8939 -81.8167 228° Southwest 188 216 3,800 -484 Descending Miami Center
Thu 05:34:35 PM 26.8544 -81.8581 223° Southwest 182 209 3,400 -387 Descending Miami Center
Thu 05:35:37 PM 26.8114 -81.8867 211° Southwest 181 208 3,000 -242 Descending Miami Center
Thu 05:36:39 PM 26.7653 -81.9033 198° South 167 192 2,900 -435 Descending Miami Center
Thu 05:37:41 PM 26.7150 -81.8964 173° South 181 208 2,100 -774 Descending Miami Center
Thu 05:38:43 PM 26.6608 -81.8850 169° South 186 214 1,300 -484 Descending Miami Center
Thu 05:39:45 PM 26.6178 -81.8628 155° Southeast 179 206 1,100 -194 Descending Miami Center
Thu 05:40:47 PM 26.5897 -81.8986 229° Southwest 151 174 900 -290 Descending Miami Center
Thu 05:41:49 PM 26.5722 -81.8925 163° South 114 131 500 -387 Descending Miami Center
Thu 05:42:51 PM 26.5825 -81.8631 69° East 106 122 100 -387 Descending Miami Center
Thu 05:44:00 PM 26.5866 -81.8633 61° Northeast  Level Estimated
Thu 05:51:00 PM 26.5866 -81.8633 61° Northeast  Level Estimated
Thu 05:52:00 PM 26.5866 -81.8633 61° Northeast  Level Estimated

Login

Don't have an account? Register now (free) for customized features, flight alerts, and more!